createdAt,value
2022-11-11T00:00:24.828Z,36
2022-11-11T00:15:23.942Z,36
2022-11-11T00:30:23.542Z,32
2022-11-11T00:45:24.271Z,27
2022-11-11T01:00:23.723Z,26
2022-11-11T01:15:23.802Z,26
2022-11-11T01:30:24.242Z,28
2022-11-11T01:45:23.902Z,28
2022-11-11T02:00:24.331Z,26
2022-11-11T02:15:23.844Z,24
2022-11-11T02:30:24.308Z,22
2022-11-11T02:45:23.987Z,23
2022-11-11T03:00:23.837Z,25
2022-11-11T03:15:24.405Z,24
2022-11-11T03:30:24.286Z,25
2022-11-11T03:45:24.687Z,26
2022-11-11T04:00:24.523Z,24
2022-11-11T04:15:24.396Z,22
2022-11-11T04:30:24.555Z,23
2022-11-11T04:45:24.241Z,23
2022-11-11T05:00:27.670Z,25
2022-11-11T05:15:24.401Z,25
2022-11-11T05:30:23.716Z,29
2022-11-11T05:45:24.570Z,27
2022-11-11T06:00:24.071Z,25
2022-11-11T06:15:23.799Z,26
2022-11-11T06:30:45.888Z,26
2022-11-11T06:45:25.933Z,26
2022-11-11T07:00:23.702Z,20
2022-11-11T07:15:24.353Z,19
2022-11-11T07:30:24.445Z,16
2022-11-11T07:45:24.584Z,16
2022-11-11T08:00:24.095Z,17
2022-11-11T08:15:23.711Z,15
2022-11-11T08:30:24.600Z,16
2022-11-11T08:45:24.592Z,16
2022-11-11T09:00:24.330Z,13
2022-11-11T09:15:24.194Z,15
2022-11-11T09:30:24.584Z,15
2022-11-11T09:45:24.052Z,18
2022-11-11T10:00:24.189Z,15
2022-11-11T10:15:24.682Z,17
2022-11-11T10:30:25.910Z,12
2022-11-11T10:45:24.607Z,10
2022-11-11T11:00:24.433Z,12
2022-11-11T11:15:24.363Z,13
2022-11-11T11:30:23.748Z,16
2022-11-11T11:45:24.480Z,15
2022-11-11T12:00:23.926Z,14
2022-11-11T12:15:24.413Z,15
2022-11-11T12:30:24.587Z,12
2022-11-11T12:45:24.666Z,12
2022-11-11T13:00:23.930Z,13
2022-11-11T13:15:24.306Z,11
2022-11-11T13:30:24.645Z,14
2022-11-11T13:45:24.260Z,13
2022-11-11T14:00:23.857Z,14
2022-11-11T14:15:24.728Z,18
2022-11-11T14:30:24.903Z,17
2022-11-11T14:45:24.509Z,24
2022-11-11T15:00:24.629Z,20
2022-11-11T15:15:23.847Z,23
2022-11-11T15:30:24.511Z,31
2022-11-11T15:45:23.700Z,20
2022-11-11T16:00:23.839Z,36
2022-11-11T16:15:24.713Z,29
2022-11-11T16:30:24.596Z,30
2022-11-11T16:45:23.698Z,37
2022-11-11T17:00:24.477Z,34
2022-11-11T17:15:24.740Z,32
2022-11-11T17:30:24.526Z,33
2022-11-11T17:45:24.539Z,33
2022-11-11T18:00:24.467Z,31
2022-11-11T18:15:24.670Z,27
2022-11-11T18:30:24.628Z,27
2022-11-11T18:45:24.381Z,32
2022-11-11T19:00:23.734Z,30
2022-11-11T19:15:23.761Z,29
2022-11-11T19:30:24.409Z,34
2022-11-11T19:45:23.680Z,27
2022-11-11T20:00:24.320Z,26
2022-11-11T20:15:24.385Z,28
2022-11-11T20:30:23.892Z,29
2022-11-11T20:45:24.442Z,30
2022-11-11T21:00:23.936Z,26
2022-11-11T21:15:24.504Z,26
2022-11-11T21:30:24.513Z,23
2022-11-11T21:45:23.938Z,23
2022-11-11T22:00:24.354Z,24
2022-11-11T22:15:24.592Z,29
2022-11-11T22:30:24.364Z,39
2022-11-11T22:45:24.362Z,27
2022-11-11T23:00:24.011Z,31
2022-11-11T23:15:23.975Z,30
2022-11-11T23:30:24.725Z,26
2022-11-11T23:45:24.140Z,27
